sensor_id;sensor_type;location;lat;lon;timestamp;temperature;humidity
52979;DHT22;63430;53.186;6.598;2022-10-16T00:01:47;12.80;99.90
52979;DHT22;63430;53.186;6.598;2022-10-16T00:03:50;12.80;99.90
52979;DHT22;63430;53.186;6.598;2022-10-16T00:05:59;12.80;99.90
52979;DHT22;63430;53.186;6.598;2022-10-16T00:08:02;12.80;99.90
52979;DHT22;63430;53.186;6.598;2022-10-16T00:10:07;12.70;99.90
52979;DHT22;63430;53.186;6.598;2022-10-16T00:12:10;12.70;99.90
52979;DHT22;63430;53.186;6.598;2022-10-16T00:14:14;12.70;99.90
52979;DHT22;63430;53.186;6.598;2022-10-16T00:16:17;12.80;99.90
52979;DHT22;63430;53.186;6.598;2022-10-16T00:18:20;12.70;99.90
52979;DHT22;63430;53.186;6.598;2022-10-16T00:20:23;12.70;99.90
52979;DHT22;63430;53.186;6.598;2022-10-16T00:22:28;12.70;99.90
52979;DHT22;63430;53.186;6.598;2022-10-16T00:24:30;12.70;99.90
52979;DHT22;63430;53.186;6.598;2022-10-16T00:26:34;12.70;99.90
52979;DHT22;63430;53.186;6.598;2022-10-16T00:28:38;12.70;99.90
52979;DHT22;63430;53.186;6.598;2022-10-16T00:30:40;12.60;99.90
52979;DHT22;63430;53.186;6.598;2022-10-16T00:32:42;13.10;99.90
52979;DHT22;63430;53.186;6.598;2022-10-16T00:34:45;12.80;99.90
52979;DHT22;63430;53.186;6.598;2022-10-16T00:36:50;12.70;99.90
52979;DHT22;63430;53.186;6.598;2022-10-16T00:38:56;12.70;99.90
52979;DHT22;63430;53.186;6.598;2022-10-16T00:41:23;12.60;99.90
52979;DHT22;63430;53.186;6.598;2022-10-16T00:43:37;12.70;99.90
52979;DHT22;63430;53.186;6.598;2022-10-16T00:45:40;12.70;99.90
52979;DHT22;63430;53.186;6.598;2022-10-16T00:47:44;12.80;99.90
52979;DHT22;63430;53.186;6.598;2022-10-16T00:49:51;12.60;99.90
52979;DHT22;63430;53.186;6.598;2022-10-16T00:51:55;12.70;99.90
52979;DHT22;63430;53.186;6.598;2022-10-16T00:54:00;12.70;99.90
52979;DHT22;63430;53.186;6.598;2022-10-16T00:56:04;12.70;99.90
52979;DHT22;63430;53.186;6.598;2022-10-16T00:58:07;12.60;99.90
52979;DHT22;63430;53.186;6.598;2022-10-16T01:00:12;12.60;99.90
52979;DHT22;63430;53.186;6.598;2022-10-16T01:02:15;12.70;99.90
52979;DHT22;63430;53.186;6.598;2022-10-16T01:04:18;12.70;99.90
52979;DHT22;63430;53.186;6.598;2022-10-16T01:06:25;12.70;99.90
52979;DHT22;63430;53.186;6.598;2022-10-16T01:08:36;12.70;99.90
52979;DHT22;63430;53.186;6.598;2022-10-16T01:10:48;13.50;99.90
52979;DHT22;63430;53.186;6.598;2022-10-16T01:12:58;12.70;99.90
52979;DHT22;63430;53.186;6.598;2022-10-16T01:15:05;12.70;99.90
52979;DHT22;63430;53.186;6.598;2022-10-16T01:17:12;12.70;99.90
52979;DHT22;63430;53.186;6.598;2022-10-16T01:19:22;12.80;99.90
52979;DHT22;63430;53.186;6.598;2022-10-16T01:21:31;12.80;99.90
52979;DHT22;63430;53.186;6.598;2022-10-16T01:23:42;12.90;99.90
52979;DHT22;63430;53.186;6.598;2022-10-16T01:26:00;12.90;99.90
52979;DHT22;63430;53.186;6.598;2022-10-16T01:28:12;13.20;99.90
52979;DHT22;63430;53.186;6.598;2022-10-16T01:30:18;12.80;99.90
52979;DHT22;63430;53.186;6.598;2022-10-16T01:32:30;12.80;99.90
52979;DHT22;63430;53.186;6.598;2022-10-16T01:34:38;12.80;99.90
52979;DHT22;63430;53.186;6.598;2022-10-16T01:36:51;12.70;99.90
52979;DHT22;63430;53.186;6.598;2022-10-16T01:38:58;12.80;99.90
52979;DHT22;63430;53.186;6.598;2022-10-16T01:41:07;12.70;99.90
52979;DHT22;63430;53.186;6.598;2022-10-16T01:43:15;12.70;99.90
52979;DHT22;63430;53.186;6.598;2022-10-16T01:45:19;12.70;99.90
52979;DHT22;63430;53.186;6.598;2022-10-16T01:47:23;12.70;99.90
52979;DHT22;63430;53.186;6.598;2022-10-16T01:49:31;12.80;99.90
52979;DHT22;63430;53.186;6.598;2022-10-16T01:51:35;12.80;99.90
52979;DHT22;63430;53.186;6.598;2022-10-16T01:53:39;12.80;99.90
52979;DHT22;63430;53.186;6.598;2022-10-16T01:55:45;12.80;99.90
52979;DHT22;63430;53.186;6.598;2022-10-16T01:57:50;12.70;99.90
52979;DHT22;63430;53.186;6.598;2022-10-16T01:59:56;12.80;99.90
52979;DHT22;63430;53.186;6.598;2022-10-16T02:02:04;12.80;99.90
52979;DHT22;63430;53.186;6.598;2022-10-16T02:04:11;12.80;99.90
52979;DHT22;63430;53.186;6.598;2022-10-16T02:06:15;12.80;99.90
52979;DHT22;63430;53.186;6.598;2022-10-16T02:08:17;12.80;99.90
52979;DHT22;63430;53.186;6.598;2022-10-16T02:10:21;12.80;99.90
52979;DHT22;63430;53.186;6.598;2022-10-16T02:12:27;12.90;99.90
52979;DHT22;63430;53.186;6.598;2022-10-16T02:14:30;12.80;99.90
52979;DHT22;63430;53.186;6.598;2022-10-16T02:16:39;12.90;99.90
52979;DHT22;63430;53.186;6.598;2022-10-16T02:18:43;12.90;99.90
52979;DHT22;63430;53.186;6.598;2022-10-16T02:20:51;12.90;99.90
52979;DHT22;63430;53.186;6.598;2022-10-16T02:22:55;12.90;99.90
52979;DHT22;63430;53.186;6.598;2022-10-16T02:25:01;12.90;99.90
52979;DHT22;63430;53.186;6.598;2022-10-16T02:27:08;12.90;99.90
52979;DHT22;63430;53.186;6.598;2022-10-16T02:29:16;12.90;99.90
52979;DHT22;63430;53.186;6.598;2022-10-16T02:31:24;12.90;99.90
52979;DHT22;63430;53.186;6.598;2022-10-16T02:33:33;12.90;99.90
52979;DHT22;63430;53.186;6.598;2022-10-16T02:35:36;12.90;99.90
52979;DHT22;63430;53.186;6.598;2022-10-16T02:37:40;12.90;99.90
52979;DHT22;63430;53.186;6.598;2022-10-16T02:39:43;13.20;99.90
52979;DHT22;63430;53.186;6.598;2022-10-16T02:41:47;13.60;99.90
52979;DHT22;63430;53.186;6.598;2022-10-16T02:43:50;13.00;99.90
52979;DHT22;63430;53.186;6.598;2022-10-16T02:45:55;12.90;99.90
52979;DHT22;63430;53.186;6.598;2022-10-16T02:47:58;12.90;99.90
52979;DHT22;63430;53.186;6.598;2022-10-16T02:50:04;12.90;99.90
52979;DHT22;63430;53.186;6.598;2022-10-16T02:52:06;12.90;99.90
52979;DHT22;63430;53.186;6.598;2022-10-16T02:54:09;12.90;99.90
52979;DHT22;63430;53.186;6.598;2022-10-16T02:56:11;12.90;99.90
52979;DHT22;63430;53.186;6.598;2022-10-16T02:58:13;12.90;99.90
52979;DHT22;63430;53.186;6.598;2022-10-16T03:00:17;13.00;99.90
52979;DHT22;63430;53.186;6.598;2022-10-16T03:02:20;12.90;99.90
52979;DHT22;63430;53.186;6.598;2022-10-16T03:04:25;13.10;99.90
52979;DHT22;63430;53.186;6.598;2022-10-16T03:06:31;13.00;99.90
52979;DHT22;63430;53.186;6.598;2022-10-16T03:08:34;13.20;99.90
52979;DHT22;63430;53.186;6.598;2022-10-16T03:10:37;13.00;99.90
52979;DHT22;63430;53.186;6.598;2022-10-16T03:12:39;13.40;99.90
52979;DHT22;63430;53.186;6.598;2022-10-16T03:14:42;13.10;99.90
52979;DHT22;63430;53.186;6.598;2022-10-16T03:16:44;13.10;99.90
52979;DHT22;63430;53.186;6.598;2022-10-16T03:18:48;13.40;99.90
52979;DHT22;63430;53.186;6.598;2022-10-16T03:20:51;13.10;99.90
52979;DHT22;63430;53.186;6.598;2022-10-16T03:22:56;13.10;99.90
52979;DHT22;63430;53.186;6.598;2022-10-16T03:24:58;13.00;99.90
52979;DHT22;63430;53.186;6.598;2022-10-16T03:27:01;13.10;99.90
52979;DHT22;63430;53.186;6.598;2022-10-16T03:29:04;12.70;99.90
52979;DHT22;63430;53.186;6.598;2022-10-16T03:31:08;12.60;99.90
52979;DHT22;63430;53.186;6.598;2022-10-16T03:33:11;13.10;99.90
52979;DHT22;63430;53.186;6.598;2022-10-16T03:35:13;13.10;99.90
52979;DHT22;63430;53.186;6.598;2022-10-16T03:37:15;13.00;99.90
52979;DHT22;63430;53.186;6.598;2022-10-16T03:39:20;13.20;99.90
52979;DHT22;63430;53.186;6.598;2022-10-16T03:41:23;13.00;99.90
52979;DHT22;63430;53.186;6.598;2022-10-16T03:43:25;13.00;99.90
52979;DHT22;63430;53.186;6.598;2022-10-16T03:45:27;13.00;99.90
52979;DHT22;63430;53.186;6.598;2022-10-16T03:47:29;13.00;99.90
52979;DHT22;63430;53.186;6.598;2022-10-16T03:49:32;13.00;99.90
52979;DHT22;63430;53.186;6.598;2022-10-16T03:51:34;12.90;99.90
52979;DHT22;63430;53.186;6.598;2022-10-16T03:53:37;13.00;99.90
52979;DHT22;63430;53.186;6.598;2022-10-16T03:55:44;12.90;99.90
52979;DHT22;63430;53.186;6.598;2022-10-16T03:57:46;13.00;99.90
52979;DHT22;63430;53.186;6.598;2022-10-16T03:59:48;12.90;99.90
52979;DHT22;63430;53.186;6.598;2022-10-16T04:01:51;12.90;99.90
52979;DHT22;63430;53.186;6.598;2022-10-16T04:03:53;12.90;99.90
52979;DHT22;63430;53.186;6.598;2022-10-16T04:05:55;13.00;99.90
52979;DHT22;63430;53.186;6.598;2022-10-16T04:07:57;13.10;99.90
52979;DHT22;63430;53.186;6.598;2022-10-16T04:10:00;13.90;99.90
52979;DHT22;63430;53.186;6.598;2022-10-16T04:12:05;12.90;99.90
52979;DHT22;63430;53.186;6.598;2022-10-16T04:14:07;12.80;99.90
52979;DHT22;63430;53.186;6.598;2022-10-16T04:16:09;12.80;99.90
52979;DHT22;63430;53.186;6.598;2022-10-16T04:18:12;12.80;99.90
52979;DHT22;63430;53.186;6.598;2022-10-16T04:20:18;12.80;99.90
52979;DHT22;63430;53.186;6.598;2022-10-16T04:22:20;12.80;99.90
52979;DHT22;63430;53.186;6.598;2022-10-16T04:24:22;13.80;99.90
52979;DHT22;63430;53.186;6.598;2022-10-16T04:26:25;12.80;99.90
52979;DHT22;63430;53.186;6.598;2022-10-16T04:28:30;12.80;99.90
52979;DHT22;63430;53.186;6.598;2022-10-16T04:30:32;12.70;99.90
52979;DHT22;63430;53.186;6.598;2022-10-16T04:32:36;12.70;99.90
52979;DHT22;63430;53.186;6.598;2022-10-16T04:34:39;12.80;99.90
52979;DHT22;63430;53.186;6.598;2022-10-16T04:36:42;12.80;99.90
52979;DHT22;63430;53.186;6.598;2022-10-16T04:38:44;12.80;99.90
52979;DHT22;63430;53.186;6.598;2022-10-16T04:40:46;12.80;99.90
52979;DHT22;63430;53.186;6.598;2022-10-16T04:42:49;12.80;99.90
52979;DHT22;63430;53.186;6.598;2022-10-16T04:44:54;12.80;99.90
52979;DHT22;63430;53.186;6.598;2022-10-16T04:46:56;12.70;99.90
52979;DHT22;63430;53.186;6.598;2022-10-16T04:48:59;12.80;99.90
52979;DHT22;63430;53.186;6.598;2022-10-16T04:51:01;12.70;99.90
52979;DHT22;63430;53.186;6.598;2022-10-16T04:53:04;13.40;99.90
52979;DHT22;63430;53.186;6.598;2022-10-16T04:55:07;12.40;99.90
52979;DHT22;63430;53.186;6.598;2022-10-16T04:57:10;12.80;99.90
52979;DHT22;63430;53.186;6.598;2022-10-16T04:59:13;12.80;99.90
52979;DHT22;63430;53.186;6.598;2022-10-16T05:01:18;12.80;99.90
52979;DHT22;63430;53.186;6.598;2022-10-16T05:03:20;13.10;99.90
52979;DHT22;63430;53.186;6.598;2022-10-16T05:05:25;12.80;99.90
52979;DHT22;63430;53.186;6.598;2022-10-16T05:07:31;12.80;99.90
52979;DHT22;63430;53.186;6.598;2022-10-16T05:09:33;12.80;99.90
52979;DHT22;63430;53.186;6.598;2022-10-16T05:11:36;12.80;99.90
52979;DHT22;63430;53.186;6.598;2022-10-16T05:13:38;12.80;99.90
52979;DHT22;63430;53.186;6.598;2022-10-16T05:15:40;12.80;99.90
52979;DHT22;63430;53.186;6.598;2022-10-16T05:17:46;13.60;99.90
52979;DHT22;63430;53.186;6.598;2022-10-16T05:19:48;12.70;99.90
52979;DHT22;63430;53.186;6.598;2022-10-16T05:21:50;12.70;99.90
52979;DHT22;63430;53.186;6.598;2022-10-16T05:23:53;12.70;99.90
52979;DHT22;63430;53.186;6.598;2022-10-16T05:25:56;12.70;99.90
52979;DHT22;63430;53.186;6.598;2022-10-16T05:28:00;12.70;99.90
52979;DHT22;63430;53.186;6.598;2022-10-16T05:30:03;12.70;99.90
52979;DHT22;63430;53.186;6.598;2022-10-16T05:32:09;12.70;99.90
52979;DHT22;63430;53.186;6.598;2022-10-16T05:34:15;12.60;99.90
52979;DHT22;63430;53.186;6.598;2022-10-16T05:36:17;13.50;99.90
52979;DHT22;63430;53.186;6.598;2022-10-16T05:38:20;12.70;99.90
52979;DHT22;63430;53.186;6.598;2022-10-16T05:40:25;12.60;99.90
52979;DHT22;63430;53.186;6.598;2022-10-16T05:42:28;12.60;99.90
52979;DHT22;63430;53.186;6.598;2022-10-16T05:44:31;12.70;99.90
52979;DHT22;63430;53.186;6.598;2022-10-16T05:46:53;13.10;99.90
52979;DHT22;63430;53.186;6.598;2022-10-16T05:49:02;12.70;99.90
52979;DHT22;63430;53.186;6.598;2022-10-16T05:51:10;12.60;99.90
52979;DHT22;63430;53.186;6.598;2022-10-16T05:53:12;12.70;99.90
52979;DHT22;63430;53.186;6.598;2022-10-16T05:55:15;13.30;99.90
52979;DHT22;63430;53.186;6.598;2022-10-16T05:57:17;12.70;99.90
52979;DHT22;63430;53.186;6.598;2022-10-16T05:59:19;12.70;99.90
52979;DHT22;63430;53.186;6.598;2022-10-16T06:01:24;12.70;99.90
52979;DHT22;63430;53.186;6.598;2022-10-16T06:03:27;13.20;99.90
52979;DHT22;63430;53.186;6.598;2022-10-16T06:05:29;12.70;99.90
52979;DHT22;63430;53.186;6.598;2022-10-16T06:07:36;12.70;99.90
52979;DHT22;63430;53.186;6.598;2022-10-16T06:09:42;12.80;99.90
52979;DHT22;63430;53.186;6.598;2022-10-16T06:11:45;12.80;99.90
52979;DHT22;63430;53.186;6.598;2022-10-16T06:13:49;12.70;99.90
52979;DHT22;63430;53.186;6.598;2022-10-16T06:15:52;12.70;99.90
52979;DHT22;63430;53.186;6.598;2022-10-16T06:17:54;12.70;99.90
52979;DHT22;63430;53.186;6.598;2022-10-16T06:19:56;12.70;99.90
52979;DHT22;63430;53.186;6.598;2022-10-16T06:21:58;12.80;99.90
52979;DHT22;63430;53.186;6.598;2022-10-16T06:24:04;12.70;99.90
52979;DHT22;63430;53.186;6.598;2022-10-16T06:26:07;12.80;99.90
52979;DHT22;63430;53.186;6.598;2022-10-16T06:28:10;12.80;99.90
52979;DHT22;63430;53.186;6.598;2022-10-16T06:30:13;12.80;99.90
52979;DHT22;63430;53.186;6.598;2022-10-16T06:32:15;12.80;99.90
52979;DHT22;63430;53.186;6.598;2022-10-16T06:34:18;12.90;99.90
52979;DHT22;63430;53.186;6.598;2022-10-16T06:36:21;12.90;99.90
52979;DHT22;63430;53.186;6.598;2022-10-16T06:38:23;12.90;99.90
52979;DHT22;63430;53.186;6.598;2022-10-16T06:40:28;13.00;99.90
52979;DHT22;63430;53.186;6.598;2022-10-16T06:42:31;13.10;99.90
52979;DHT22;63430;53.186;6.598;2022-10-16T06:44:33;13.00;99.90
52979;DHT22;63430;53.186;6.598;2022-10-16T06:46:35;13.00;99.90
52979;DHT22;63430;53.186;6.598;2022-10-16T06:48:38;13.00;99.90
52979;DHT22;63430;53.186;6.598;2022-10-16T06:50:40;13.10;99.90
52979;DHT22;63430;53.186;6.598;2022-10-16T06:52:43;13.10;99.90
52979;DHT22;63430;53.186;6.598;2022-10-16T06:54:45;13.10;99.90
52979;DHT22;63430;53.186;6.598;2022-10-16T06:56:51;13.20;99.90
52979;DHT22;63430;53.186;6.598;2022-10-16T06:58:56;13.30;99.90
52979;DHT22;63430;53.186;6.598;2022-10-16T07:00:58;13.30;99.90
52979;DHT22;63430;53.186;6.598;2022-10-16T07:03:00;13.30;99.90
52979;DHT22;63430;53.186;6.598;2022-10-16T07:05:03;12.80;99.90
52979;DHT22;63430;53.186;6.598;2022-10-16T07:07:06;13.30;99.90
52979;DHT22;63430;53.186;6.598;2022-10-16T07:09:11;13.30;99.90
52979;DHT22;63430;53.186;6.598;2022-10-16T07:11:15;13.30;99.90
52979;DHT22;63430;53.186;6.598;2022-10-16T07:13:21;13.30;99.90
52979;DHT22;63430;53.186;6.598;2022-10-16T07:15:24;13.20;99.90
52979;DHT22;63430;53.186;6.598;2022-10-16T07:17:26;13.20;99.90
52979;DHT22;63430;53.186;6.598;2022-10-16T07:19:29;13.20;99.90
52979;DHT22;63430;53.186;6.598;2022-10-16T07:21:35;13.20;99.90
52979;DHT22;63430;53.186;6.598;2022-10-16T07:23:39;13.30;99.90
52979;DHT22;63430;53.186;6.598;2022-10-16T07:25:41;13.20;99.90
52979;DHT22;63430;53.186;6.598;2022-10-16T07:27:44;13.20;99.90
52979;DHT22;63430;53.186;6.598;2022-10-16T07:29:49;13.20;99.90
52979;DHT22;63430;53.186;6.598;2022-10-16T07:31:51;13.20;99.90
52979;DHT22;63430;53.186;6.598;2022-10-16T07:33:54;13.20;99.90
52979;DHT22;63430;53.186;6.598;2022-10-16T07:35:57;13.20;99.90
52979;DHT22;63430;53.186;6.598;2022-10-16T07:37:59;13.20;99.90
52979;DHT22;63430;53.186;6.598;2022-10-16T07:40:02;13.20;99.90
52979;DHT22;63430;53.186;6.598;2022-10-16T07:42:05;13.20;99.90
52979;DHT22;63430;53.186;6.598;2022-10-16T07:44:07;13.20;99.90
52979;DHT22;63430;53.186;6.598;2022-10-16T07:46:13;13.30;99.90
52979;DHT22;63430;53.186;6.598;2022-10-16T07:48:17;13.30;99.90
52979;DHT22;63430;53.186;6.598;2022-10-16T07:50:20;13.30;99.90
52979;DHT22;63430;53.186;6.598;2022-10-16T07:52:22;13.20;99.90
52979;DHT22;63430;53.186;6.598;2022-10-16T07:54:24;13.30;99.90
52979;DHT22;63430;53.186;6.598;2022-10-16T07:56:26;14.00;99.90
52979;DHT22;63430;53.186;6.598;2022-10-16T07:58:44;13.40;99.90
52979;DHT22;63430;53.186;6.598;2022-10-16T08:00:46;13.40;99.90
52979;DHT22;63430;53.186;6.598;2022-10-16T08:02:51;13.50;99.90
52979;DHT22;63430;53.186;6.598;2022-10-16T08:04:54;13.50;99.90
52979;DHT22;63430;53.186;6.598;2022-10-16T08:06:56;14.30;99.90
52979;DHT22;63430;53.186;6.598;2022-10-16T08:08:58;13.60;99.90
52979;DHT22;63430;53.186;6.598;2022-10-16T08:11:02;13.70;99.90
52979;DHT22;63430;53.186;6.598;2022-10-16T08:13:05;13.80;99.90
52979;DHT22;63430;53.186;6.598;2022-10-16T08:15:28;13.90;99.90
52979;DHT22;63430;53.186;6.598;2022-10-16T08:17:30;13.90;99.90
52979;DHT22;63430;53.186;6.598;2022-10-16T08:19:35;13.90;99.90
52979;DHT22;63430;53.186;6.598;2022-10-16T08:21:38;14.00;99.90
52979;DHT22;63430;53.186;6.598;2022-10-16T08:23:40;14.00;99.90
52979;DHT22;63430;53.186;6.598;2022-10-16T08:25:43;14.10;99.90
52979;DHT22;63430;53.186;6.598;2022-10-16T08:27:47;14.10;99.90
52979;DHT22;63430;53.186;6.598;2022-10-16T08:29:49;14.00;99.90
52979;DHT22;63430;53.186;6.598;2022-10-16T08:31:52;14.90;99.90
52979;DHT22;63430;53.186;6.598;2022-10-16T08:33:55;14.00;99.90
52979;DHT22;63430;53.186;6.598;2022-10-16T08:36:01;14.10;99.90
52979;DHT22;63430;53.186;6.598;2022-10-16T08:38:03;14.60;99.90
52979;DHT22;63430;53.186;6.598;2022-10-16T08:40:11;14.30;99.90
52979;DHT22;63430;53.186;6.598;2022-10-16T08:42:27;14.40;99.90
52979;DHT22;63430;53.186;6.598;2022-10-16T08:45:02;14.50;99.90
52979;DHT22;63430;53.186;6.598;2022-10-16T08:47:16;15.10;99.90
52979;DHT22;63430;53.186;6.598;2022-10-16T08:49:22;14.60;99.90
52979;DHT22;63430;53.186;6.598;2022-10-16T08:51:31;14.80;99.90
52979;DHT22;63430;53.186;6.598;2022-10-16T08:53:40;14.70;99.90
52979;DHT22;63430;53.186;6.598;2022-10-16T08:55:47;14.80;99.90
52979;DHT22;63430;53.186;6.598;2022-10-16T08:57:51;14.80;99.90
52979;DHT22;63430;53.186;6.598;2022-10-16T08:59:59;14.90;99.90
52979;DHT22;63430;53.186;6.598;2022-10-16T09:02:24;14.90;99.90
52979;DHT22;63430;53.186;6.598;2022-10-16T09:04:45;15.00;99.90
52979;DHT22;63430;53.186;6.598;2022-10-16T09:07:05;15.10;99.90
52979;DHT22;63430;53.186;6.598;2022-10-16T09:09:29;15.10;99.90
52979;DHT22;63430;53.186;6.598;2022-10-16T09:11:46;15.20;99.90
52979;DHT22;63430;53.186;6.598;2022-10-16T09:13:54;15.20;99.90
52979;DHT22;63430;53.186;6.598;2022-10-16T09:16:05;15.20;99.90
52979;DHT22;63430;53.186;6.598;2022-10-16T09:18:12;15.30;99.90
52979;DHT22;63430;53.186;6.598;2022-10-16T09:20:25;15.40;99.90
52979;DHT22;63430;53.186;6.598;2022-10-16T09:22:32;15.40;99.90
52979;DHT22;63430;53.186;6.598;2022-10-16T09:24:37;15.60;99.90
52979;DHT22;63430;53.186;6.598;2022-10-16T09:26:40;15.70;99.90
52979;DHT22;63430;53.186;6.598;2022-10-16T09:28:43;15.70;99.90
52979;DHT22;63430;53.186;6.598;2022-10-16T09:30:51;15.80;99.90
52979;DHT22;63430;53.186;6.598;2022-10-16T09:32:58;15.80;99.90
52979;DHT22;63430;53.186;6.598;2022-10-16T09:35:02;16.30;99.90
52979;DHT22;63430;53.186;6.598;2022-10-16T09:37:14;15.70;99.90
52979;DHT22;63430;53.186;6.598;2022-10-16T09:39:22;15.70;99.90
52979;DHT22;63430;53.186;6.598;2022-10-16T09:41:26;15.40;99.90
52979;DHT22;63430;53.186;6.598;2022-10-16T09:43:36;15.70;99.90
52979;DHT22;63430;53.186;6.598;2022-10-16T09:45:41;15.70;99.90
52979;DHT22;63430;53.186;6.598;2022-10-16T09:47:44;16.50;99.90
52979;DHT22;63430;53.186;6.598;2022-10-16T09:49:54;15.80;99.90
52979;DHT22;63430;53.186;6.598;2022-10-16T09:52:12;15.90;99.90
52979;DHT22;63430;53.186;6.598;2022-10-16T09:54:21;16.00;99.90
52979;DHT22;63430;53.186;6.598;2022-10-16T09:56:25;16.10;99.90
52979;DHT22;63430;53.186;6.598;2022-10-16T09:58:30;16.30;99.90
52979;DHT22;63430;53.186;6.598;2022-10-16T10:00:34;16.30;99.90
52979;DHT22;63430;53.186;6.598;2022-10-16T10:02:38;16.40;99.90
52979;DHT22;63430;53.186;6.598;2022-10-16T10:04:44;16.40;99.90
52979;DHT22;63430;53.186;6.598;2022-10-16T10:06:52;16.60;99.90
52979;DHT22;63430;53.186;6.598;2022-10-16T10:09:04;17.10;99.90
52979;DHT22;63430;53.186;6.598;2022-10-16T10:11:10;16.70;99.90
52979;DHT22;63430;53.186;6.598;2022-10-16T10:13:19;16.50;99.90
52979;DHT22;63430;53.186;6.598;2022-10-16T10:15:22;16.60;99.90
52979;DHT22;63430;53.186;6.598;2022-10-16T10:17:28;16.40;99.90
52979;DHT22;63430;53.186;6.598;2022-10-16T10:19:38;17.30;99.90
52979;DHT22;63430;53.186;6.598;2022-10-16T10:21:41;16.30;99.90
52979;DHT22;63430;53.186;6.598;2022-10-16T10:23:55;16.10;99.90
52979;DHT22;63430;53.186;6.598;2022-10-16T10:26:03;16.20;99.90
52979;DHT22;63430;53.186;6.598;2022-10-16T10:28:21;16.30;99.90
52979;DHT22;63430;53.186;6.598;2022-10-16T10:30:38;16.40;99.90
52979;DHT22;63430;53.186;6.598;2022-10-16T10:32:50;16.50;99.90
52979;DHT22;63430;53.186;6.598;2022-10-16T10:35:12;16.50;99.90
52979;DHT22;63430;53.186;6.598;2022-10-16T10:37:32;16.50;99.90
52979;DHT22;63430;53.186;6.598;2022-10-16T10:39:41;16.40;99.90
52979;DHT22;63430;53.186;6.598;2022-10-16T10:42:13;16.50;99.90
52979;DHT22;63430;53.186;6.598;2022-10-16T10:44:32;16.50;99.90
52979;DHT22;63430;53.186;6.598;2022-10-16T10:46:42;16.50;99.90
52979;DHT22;63430;53.186;6.598;2022-10-16T10:48:58;16.50;99.90
52979;DHT22;63430;53.186;6.598;2022-10-16T10:51:11;16.60;99.90
52979;DHT22;63430;53.186;6.598;2022-10-16T10:53:28;16.80;99.90
52979;DHT22;63430;53.186;6.598;2022-10-16T10:55:38;16.90;99.90
52979;DHT22;63430;53.186;6.598;2022-10-16T10:57:47;17.00;99.90
52979;DHT22;63430;53.186;6.598;2022-10-16T11:00:12;17.10;99.90
52979;DHT22;63430;53.186;6.598;2022-10-16T11:02:24;17.20;99.90
52979;DHT22;63430;53.186;6.598;2022-10-16T11:04:58;17.10;99.90
52979;DHT22;63430;53.186;6.598;2022-10-16T11:07:10;17.10;99.90
52979;DHT22;63430;53.186;6.598;2022-10-16T11:09:23;17.00;99.90
52979;DHT22;63430;53.186;6.598;2022-10-16T11:11:32;16.60;99.90
52979;DHT22;63430;53.186;6.598;2022-10-16T11:13:38;17.00;99.90
52979;DHT22;63430;53.186;6.598;2022-10-16T11:15:47;17.00;99.80
52979;DHT22;63430;53.186;6.598;2022-10-16T11:18:16;17.00;98.90
52979;DHT22;63430;53.186;6.598;2022-10-16T11:20:24;17.10;99.50
52979;DHT22;63430;53.186;6.598;2022-10-16T11:22:32;17.00;97.50
52979;DHT22;63430;53.186;6.598;2022-10-16T11:24:42;16.90;96.70
52979;DHT22;63430;53.186;6.598;2022-10-16T11:26:46;16.90;97.50
52979;DHT22;63430;53.186;6.598;2022-10-16T11:28:51;16.80;97.80
52979;DHT22;63430;53.186;6.598;2022-10-16T11:31:03;17.10;98.40
52979;DHT22;63430;53.186;6.598;2022-10-16T11:33:22;16.90;98.20
52979;DHT22;63430;53.186;6.598;2022-10-16T11:35:38;17.00;97.50
52979;DHT22;63430;53.186;6.598;2022-10-16T11:37:44;17.10;96.30
52979;DHT22;63430;53.186;6.598;2022-10-16T11:39:50;17.20;97.50
52979;DHT22;63430;53.186;6.598;2022-10-16T11:41:56;17.30;97.10
52979;DHT22;63430;53.186;6.598;2022-10-16T11:44:27;17.30;96.40
52979;DHT22;63430;53.186;6.598;2022-10-16T11:46:38;17.40;93.80
52979;DHT22;63430;53.186;6.598;2022-10-16T11:49:06;17.40;95.60
52979;DHT22;63430;53.186;6.598;2022-10-16T11:51:16;17.40;94.80
52979;DHT22;63430;53.186;6.598;2022-10-16T11:53:35;17.40;92.50
52979;DHT22;63430;53.186;6.598;2022-10-16T11:55:40;17.50;92.00
52979;DHT22;63430;53.186;6.598;2022-10-16T11:57:49;17.40;94.00
52979;DHT22;63430;53.186;6.598;2022-10-16T11:59:56;17.40;93.90
52979;DHT22;63430;53.186;6.598;2022-10-16T12:02:26;17.50;93.90
52979;DHT22;63430;53.186;6.598;2022-10-16T12:04:39;17.60;93.40
52979;DHT22;63430;53.186;6.598;2022-10-16T12:06:52;17.60;92.40
52979;DHT22;63430;53.186;6.598;2022-10-16T12:09:01;17.60;93.30
52979;DHT22;63430;53.186;6.598;2022-10-16T12:11:20;17.70;92.40
52979;DHT22;63430;53.186;6.598;2022-10-16T12:13:34;17.50;92.30
52979;DHT22;63430;53.186;6.598;2022-10-16T12:15:37;17.60;91.80
52979;DHT22;63430;53.186;6.598;2022-10-16T12:18:02;17.50;93.20
52979;DHT22;63430;53.186;6.598;2022-10-16T12:20:26;17.50;93.40
52979;DHT22;63430;53.186;6.598;2022-10-16T12:22:30;17.40;92.70
52979;DHT22;63430;53.186;6.598;2022-10-16T12:24:34;17.40;93.00
52979;DHT22;63430;53.186;6.598;2022-10-16T12:26:39;17.70;94.40
52979;DHT22;63430;53.186;6.598;2022-10-16T12:28:44;17.40;93.30
52979;DHT22;63430;53.186;6.598;2022-10-16T12:30:53;17.40;93.90
52979;DHT22;63430;53.186;6.598;2022-10-16T12:32:57;17.40;94.60
52979;DHT22;63430;53.186;6.598;2022-10-16T12:35:05;17.30;94.10
52979;DHT22;63430;53.186;6.598;2022-10-16T12:37:12;17.20;94.30
52979;DHT22;63430;53.186;6.598;2022-10-16T12:39:21;17.00;94.80
52979;DHT22;63430;53.186;6.598;2022-10-16T12:41:26;16.90;95.50
52979;DHT22;63430;53.186;6.598;2022-10-16T12:43:38;17.10;96.20
52979;DHT22;63430;53.186;6.598;2022-10-16T12:46:06;16.70;96.30
52979;DHT22;63430;53.186;6.598;2022-10-16T12:48:30;16.50;96.60
52979;DHT22;63430;53.186;6.598;2022-10-16T12:50:53;16.40;96.70
52979;DHT22;63430;53.186;6.598;2022-10-16T12:52:56;16.50;97.10
52979;DHT22;63430;53.186;6.598;2022-10-16T12:54:59;16.50;97.00
52979;DHT22;63430;53.186;6.598;2022-10-16T12:57:21;16.10;96.70
52979;DHT22;63430;53.186;6.598;2022-10-16T12:59:36;16.00;97.00
52979;DHT22;63430;53.186;6.598;2022-10-16T13:01:55;16.00;97.40
52979;DHT22;63430;53.186;6.598;2022-10-16T13:06:45;16.00;96.10
52979;DHT22;63430;53.186;6.598;2022-10-16T13:09:22;16.00;96.40
52979;DHT22;63430;53.186;6.598;2022-10-16T13:11:33;16.00;96.20
52979;DHT22;63430;53.186;6.598;2022-10-16T13:14:00;16.60;96.70
52979;DHT22;63430;53.186;6.598;2022-10-16T13:16:13;16.10;96.50
52979;DHT22;63430;53.186;6.598;2022-10-16T13:18:33;16.10;97.00
52979;DHT22;63430;53.186;6.598;2022-10-16T13:20:56;15.50;96.60
52979;DHT22;63430;53.186;6.598;2022-10-16T13:23:10;16.20;96.00
52979;DHT22;63430;53.186;6.598;2022-10-16T13:25:22;16.20;96.30